Time;durP1;ratioP1;P1;durP2;ratioP2;P2;SDS_P1;SDS_P2;PMS_P1;PMS_P2;Temp;Humidity;BMP_temperature;BMP_pressure;BME280_temperature;BME280_humidity;BME280_pressure;Samples;Min_cycle;Max_cycle;Signal;HPM_P1;HPM_P2
2022/10/28 00:01:08;;;;;;;23.75;8.65;;;;;;;12.66;60.03;96511.78;5048065;28;20036;-77
2022/10/28 00:03:38;;;;;;;18.70;8.35;;;;;;;12.37;60.06;96468.72;5038556;28;20111;-77
2022/10/28 00:06:05;;;;;;;16.60;8.23;;;;;;;12.57;60.53;96510.66;5048751;28;20566;-78
2022/10/28 00:08:31;;;;;;;18.27;8.55;;;;;;;12.47;60.64;96505.25;5048055;28;20069;-78
2022/10/28 00:11:09;;;;;;;16.88;8.80;;;;;;;12.40;61.09;96504.66;5050082;28;20068;-80
2022/10/28 00:13:35;;;;;;;15.20;8.45;;;;;;;12.15;60.86;96467.16;5038003;28;20431;-78
2022/10/28 00:16:10;;;;;;;22.35;8.63;;;;;;;12.36;60.92;96506.19;5038605;28;20037;-78
2022/10/28 00:18:36;;;;;;;21.27;8.57;;;;;;;12.35;61.10;96493.97;5056211;28;20481;-78
2022/10/28 00:21:03;;;;;;;25.92;10.00;;;;;;;12.15;61.49;96480.47;5056714;28;20032;-77
2022/10/28 00:23:31;;;;;;;17.73;8.30;;;;;;;12.18;61.64;96499.41;5039389;28;20043;-77
2022/10/28 00:26:03;;;;;;;17.23;8.38;;;;;;;12.03;61.94;96495.78;5039280;28;20030;-78
2022/10/28 00:28:29;;;;;;;16.60;8.73;;;;;;;12.07;61.78;96495.03;5051251;28;20045;-77
2022/10/28 00:30:54;;;;;;;19.70;8.48;;;;;;;12.11;61.69;96500.66;5047873;28;20088;-77
2022/10/28 00:33:20;;;;;;;21.00;8.50;;;;;;;11.45;61.88;96397.06;5049091;28;20068;-78
2022/10/28 00:35:45;;;;;;;20.50;8.48;;;;;;;12.02;62.25;96486.19;5048252;28;20039;-77
2022/10/28 00:38:10;;;;;;;18.38;9.30;;;;;;;11.53;62.03;96415.22;5049566;28;20128;-77
2022/10/28 00:40:36;;;;;;;24.73;8.95;;;;;;;11.99;62.23;96475.00;5047713;28;20403;-77
2022/10/28 00:43:01;;;;;;;21.13;9.30;;;;;;;11.90;62.31;96467.75;5036200;28;20040;-77
2022/10/28 00:45:27;;;;;;;23.92;8.15;;;;;;;11.61;62.23;96416.63;5047957;28;20064;-77
2022/10/28 00:47:59;;;;;;;27.08;9.60;;;;;;;11.85;62.49;96457.84;5048076;28;20041;-78
2022/10/28 00:50:50;;;;;;;19.90;8.82;;;;;;;12.10;62.32;96497.19;5031449;28;20403;-78
2022/10/28 00:53:23;;;;;;;23.92;8.80;;;;;;;11.65;62.25;96424.91;5053165;28;20029;-78
2022/10/28 00:55:50;;;;;;;17.02;9.35;;;;;;;11.65;62.07;96435.53;5035325;28;20087;-77
2022/10/28 00:58:17;;;;;;;18.20;9.38;;;;;;;11.99;62.01;96482.97;5052911;28;20076;-78
2022/10/28 01:00:43;;;;;;;16.52;8.88;;;;;;;11.84;62.14;96458.09;5052299;28;20443;-78
2022/10/28 01:03:08;;;;;;;25.08;9.32;;;;;;;11.56;62.36;96419.22;5032223;28;20131;-78
2022/10/28 01:05:37;;;;;;;19.45;9.75;;;;;;;11.83;62.41;96473.22;5044989;28;20127;-79
2022/10/28 01:08:04;;;;;;;19.77;8.77;;;;;;;11.82;62.52;96469.00;5042417;28;20052;-78
2022/10/28 01:10:35;;;;;;;18.25;9.73;;;;;;;11.97;62.41;96494.94;5041579;28;20067;-78
2022/10/28 01:13:14;;;;;;;;;;;;;;;11.99;62.49;96488.28;5046131;28;20052;-79
2022/10/28 01:16:04;;;;;;;22.02;9.15;;;;;;;12.01;62.22;96498.69;5044976;28;19967;-77
2022/10/28 01:18:59;;;;;;;23.05;8.60;;;;;;;11.97;62.30;96495.75;5053385;28;20124;-77
2022/10/28 01:21:52;;;;;;;22.08;10.32;;;;;;;11.93;62.49;96501.78;5039933;28;20041;-78
2022/10/28 01:24:45;;;;;;;23.70;10.00;;;;;;;11.91;62.60;96488.75;5054690;28;20178;-78
2022/10/28 01:27:14;;;;;;;23.00;10.20;;;;;;;11.91;62.72;96493.25;5041072;28;20041;-78
2022/10/28 01:29:45;;;;;;;28.42;10.27;;;;;;;11.90;62.69;96489.78;5023049;28;20103;-78
2022/10/28 01:32:29;;;;;;;21.83;9.98;;;;;;;11.87;62.72;96490.31;5041433;28;20057;-76
2022/10/28 01:35:15;;;;;;;20.02;9.48;;;;;;;11.81;62.56;96493.97;5049950;28;20045;-77
2022/10/28 01:38:09;;;;;;;20.77;9.77;;;;;;;11.49;62.77;96448.66;5001467;28;20049;-78
2022/10/28 01:40:51;;;;;;;22.27;9.20;;;;;;;11.38;62.85;96446.91;5034980;28;20045;-78
2022/10/28 01:43:33;;;;;;;;;;;;;;;11.73;63.17;96499.69;5044626;28;20393;-78
2022/10/28 01:46:11;;;;;;;18.85;9.95;;;;;;;11.22;62.87;96421.22;5034526;28;19959;-79
2022/10/28 01:48:44;;;;;;;22.65;9.85;;;;;;;11.23;62.80;96423.63;5050418;28;20037;-79
2022/10/28 01:51:23;;;;;;;24.10;10.93;;;;;;;11.52;62.77;96473.91;5050969;28;20043;-77
2022/10/28 01:53:54;;;;;;;22.60;10.10;;;;;;;11.38;62.93;96467.34;5038590;28;20139;-77
2022/10/28 01:56:32;;;;;;;21.38;10.10;;;;;;;11.40;63.53;96486.50;5054995;28;20068;-78
2022/10/28 01:59:00;;;;;;;24.88;11.40;;;;;;;11.17;62.99;96437.91;5053024;28;20076;-77
2022/10/28 02:01:28;;;;;;;23.88;10.40;;;;;;;11.59;62.84;96504.53;5049504;28;20036;-79
2022/10/28 02:03:54;;;;;;;22.60;10.05;;;;;;;11.59;63.06;96506.44;5051034;28;20045;-78
2022/10/28 02:06:22;;;;;;;24.02;10.18;;;;;;;11.37;63.38;96476.38;5050206;28;20059;-76
2022/10/28 02:09:27;;;;;;;25.15;11.30;;;;;;;11.25;63.20;96479.16;5050993;28;20037;-76
2022/10/28 02:12:32;;;;;;;19.33;10.73;;;;;;;11.36;63.81;96506.66;5045888;28;20032;-77
2022/10/28 02:15:18;;;;;;;22.95;10.38;;;;;;;11.36;63.60;96491.53;5052021;28;20045;-78
2022/10/28 02:18:11;;;;;;;18.73;10.10;;;;;;;11.40;63.57;96503.25;5050341;28;20071;-78
2022/10/28 02:21:10;;;;;;;19.45;10.65;;;;;;;10.90;63.20;96437.00;5036163;28;20044;-78
2022/10/28 02:23:55;;;;;;;24.23;10.07;;;;;;;11.28;63.84;96507.09;5034077;28;20132;-79
2022/10/28 02:26:30;;;;;;;24.30;10.00;;;;;;;11.33;63.31;96509.78;5047405;28;20094;-78
2022/10/28 02:29:18;;;;;;;23.60;11.02;;;;;;;11.27;63.53;96508.13;5047834;28;20123;-78
2022/10/28 02:31:52;;;;;;;23.05;11.07;;;;;;;11.16;63.49;96491.25;5052092;28;20110;-78
2022/10/28 02:34:26;;;;;;;26.85;10.88;;;;;;;11.26;63.43;96501.19;5042186;28;20098;-78
2022/10/28 02:36:56;;;;;;;27.48;10.93;;;;;;;11.28;63.73;96509.75;5048079;28;20071;-78
2022/10/28 02:39:28;;;;;;;24.27;10.60;;;;;;;10.97;63.40;96455.41;5023367;28;20427;-78
2022/10/28 02:42:04;;;;;;;25.20;11.90;;;;;;;11.25;63.60;96500.41;5035152;28;20495;-78
2022/10/28 02:44:44;;;;;;;24.13;10.38;;;;;;;10.72;63.62;96430.13;5047248;28;20048;-78
2022/10/28 02:47:15;;;;;;;26.60;10.93;;;;;;;11.32;63.64;96514.31;5046615;28;20037;-77
2022/10/28 02:49:44;;;;;;;27.52;10.98;;;;;;;11.01;63.70;96473.25;5051558;28;20110;-77
2022/10/28 02:52:10;;;;;;;23.88;10.18;;;;;;;11.22;63.10;96511.50;5034015;28;20133;-77
2022/10/28 02:54:48;;;;;;;28.48;11.05;;;;;;;11.30;63.46;96516.38;5049843;28;20037;-78
2022/10/28 02:57:18;;;;;;;28.70;11.27;;;;;;;10.91;63.40;96457.19;5050634;28;20103;-78
2022/10/28 02:59:54;;;;;;;24.73;10.98;;;;;;;11.04;63.66;96477.28;5050985;28;20044;-78
2022/10/28 03:02:20;;;;;;;26.27;11.20;;;;;;;10.96;63.41;96467.88;5049680;28;20461;-78
2022/10/28 03:04:45;;;;;;;28.02;10.65;;;;;;;11.00;63.43;96484.09;5050700;28;20040;-78
2022/10/28 03:07:11;;;;;;;24.48;10.52;;;;;;;10.84;63.79;96475.94;5050976;28;20053;-78
2022/10/28 03:09:36;;;;;;;28.27;10.68;;;;;;;10.87;63.81;96477.31;5050792;28;20048;-78
2022/10/28 03:12:02;;;;;;;24.50;10.68;;;;;;;11.09;63.91;96519.81;5050890;28;20143;-78
2022/10/28 03:14:27;;;;;;;30.63;10.75;;;;;;;10.80;63.67;96464.22;5049898;28;20047;-79
2022/10/28 03:16:53;;;;;;;23.67;10.60;;;;;;;10.62;63.69;96448.53;5050624;28;20041;-78
2022/10/28 03:19:18;;;;;;;24.58;10.05;;;;;;;10.70;64.00;96471.19;5027749;28;20494;-77
2022/10/28 03:21:44;;;;;;;26.65;10.07;;;;;;;10.64;63.88;96465.03;5028275;28;20049;-77
2022/10/28 03:24:09;;;;;;;33.33;10.35;;;;;;;10.99;63.77;96519.66;5027980;28;20037;-78
2022/10/28 03:26:34;;;;;;;27.65;10.52;;;;;;;10.55;64.33;96445.25;5045180;28;20038;-77
2022/10/28 03:29:00;;;;;;;25.73;11.52;;;;;;;10.68;64.25;96463.47;5046453;28;20177;-77
2022/10/28 03:31:25;;;;;;;24.10;11.15;;;;;;;10.60;64.10;96455.16;5034561;28;20091;-77
2022/10/28 03:33:51;;;;;;;32.28;11.50;;;;;;;10.04;63.92;96362.22;5028742;28;20082;-78
2022/10/28 03:36:16;;;;;;;36.67;11.23;;;;;;;10.68;64.17;96478.63;5047842;28;20107;-78
2022/10/28 03:38:41;;;;;;;33.95;11.15;;;;;;;10.95;64.42;96511.41;5042404;28;20041;-78
2022/10/28 03:41:07;;;;;;;35.15;12.27;;;;;;;10.94;63.71;96515.09;5034949;28;20573;-77
2022/10/28 03:43:32;;;;;;;19.55;9.32;;;;;;;10.68;63.66;96489.22;5051081;28;20037;-76
2022/10/28 03:45:58;;;;;;;25.73;11.02;;;;;;;10.71;64.05;96494.84;5032982;28;20040;-78
2022/10/28 03:48:23;;;;;;;25.80;11.38;;;;;;;10.40;64.03;96447.66;5052952;28;20083;-78
2022/10/28 03:50:53;;;;;;;29.52;10.48;;;;;;;10.39;63.87;96454.00;5049597;28;20123;-77
2022/10/28 03:53:18;;;;;;;20.65;10.20;;;;;;;10.82;64.43;96525.81;5052765;28;20467;-77
2022/10/28 03:55:51;;;;;;;23.80;10.73;;;;;;;10.55;64.20;96482.38;5033422;28;20127;-77
2022/10/28 03:58:16;;;;;;;26.35;11.50;;;;;;;10.56;64.25;96480.53;5046070;28;20041;-78
2022/10/28 04:00:41;;;;;;;31.60;11.38;;;;;;;10.42;64.09;96467.59;5046746;28;20052;-77
2022/10/28 04:03:07;;;;;;;33.53;11.73;;;;;;;10.35;63.80;96451.03;5033766;28;20060;-77
2022/10/28 04:05:32;;;;;;;26.58;10.40;;;;;;;10.21;63.98;96433.84;5047169;28;20040;-77
2022/10/28 04:07:58;;;;;;;29.65;11.35;;;;;;;10.71;64.41;96515.25;5046518;28;20119;-77
2022/10/28 04:10:23;;;;;;;34.08;12.35;;;;;;;10.29;64.08;96459.97;5045811;28;20060;-77
2022/10/28 04:12:49;;;;;;;29.27;10.52;;;;;;;10.54;64.26;96496.69;5042977;28;20726;-77
2022/10/28 04:15:14;;;;;;;28.42;11.70;;;;;;;10.44;63.99;96484.09;5041879;28;20086;-78
2022/10/28 04:17:39;;;;;;;36.92;12.27;;;;;;;9.83;63.77;96384.16;5045655;28;20312;-77
2022/10/28 04:20:05;;;;;;;30.17;11.82;;;;;;;10.56;63.98;96493.78;5019141;28;20037;-78
2022/10/28 04:22:31;;;;;;;38.05;12.32;;;;;;;10.33;64.12;96462.91;5020701;28;20029;-77
2022/10/28 04:24:56;;;;;;;27.05;11.70;;;;;;;10.27;64.34;96462.03;5021081;28;20128;-77
2022/10/28 04:27:22;;;;;;;27.38;11.68;;;;;;;10.30;64.09;96471.34;5023836;28;20560;-77
2022/10/28 04:29:47;;;;;;;20.60;10.60;;;;;;;10.19;64.22;96449.19;5034463;28;20029;-77
2022/10/28 04:32:13;;;;;;;29.67;11.95;;;;;;;10.73;64.04;96534.41;5009036;28;20569;-78
2022/10/28 04:34:38;;;;;;;39.78;12.40;;;;;;;10.03;63.81;96420.78;5032546;28;20041;-78
2022/10/28 04:37:03;;;;;;;37.80;12.32;;;;;;;10.18;64.10;96460.81;5037557;28;20025;-77
2022/10/28 04:39:29;;;;;;;31.10;12.90;;;;;;;10.24;64.03;96469.66;5023191;28;20497;-78
2022/10/28 04:41:54;;;;;;;34.47;13.02;;;;;;;10.45;64.10;96514.06;5026825;28;20257;-77
2022/10/28 04:44:20;;;;;;;30.77;13.40;;;;;;;10.34;63.96;96481.25;5041748;28;20036;-78
2022/10/28 04:46:45;;;;;;;34.58;13.40;;;;;;;10.05;63.66;96435.41;5038546;28;20041;-77
2022/10/28 04:49:10;;;;;;;39.90;13.35;;;;;;;10.26;64.46;96494.09;5035394;28;20045;-78
2022/10/28 04:51:36;;;;;;;44.53;15.00;;;;;;;9.87;64.11;96443.56;5035977;28;20110;-78
2022/10/28 04:54:02;;;;;;;52.08;14.27;;;;;;;10.21;63.77;96478.09;5037232;28;20033;-78
2022/10/28 04:56:29;;;;;;;36.08;15.05;;;;;;;10.36;63.29;96495.09;5035387;28;20045;-79
2022/10/28 04:58:55;;;;;;;33.00;14.25;;;;;;;10.37;63.09;96491.38;5015175;28;20052;-78
2022/10/28 05:01:20;;;;;;;36.83;15.65;;;;;;;10.66;63.02;96531.91;5038104;28;20400;-78
2022/10/28 05:03:46;;;;;;;39.63;14.13;;;;;;;10.31;62.97;96476.41;5039769;28;20045;-78
2022/10/28 05:06:11;;;;;;;38.47;16.83;;;;;;;10.43;62.98;96502.88;5038202;28;20076;-78
2022/10/28 05:08:37;;;;;;;37.67;14.55;;;;;;;9.46;62.89;96343.22;5015563;28;20044;-80
2022/10/28 05:11:02;;;;;;;37.55;13.50;;;;;;;10.40;63.08;96496.19;5029977;28;20083;-82
2022/10/28 05:13:28;;;;;;;39.63;15.10;;;;;;;10.20;63.30;96464.03;5033327;28;20044;-81
2022/10/28 05:15:53;;;;;;;40.38;13.90;;;;;;;10.12;63.64;96461.75;5026435;28;20049;-79
2022/10/28 05:18:18;;;;;;;38.95;13.55;;;;;;;9.66;63.35;96391.25;5015020;28;20044;-83
2022/10/28 05:20:44;;;;;;;48.25;14.68;;;;;;;10.51;63.69;96518.41;5027343;28;20037;-80
2022/10/28 05:23:09;;;;;;;40.47;15.40;;;;;;;9.91;63.38;96434.09;5014291;28;20040;-79
2022/10/28 05:25:35;;;;;;;41.40;16.00;;;;;;;10.66;63.50;96545.19;5014066;28;20066;-79
2022/10/28 05:28:02;;;;;;;39.28;15.35;;;;;;;10.56;63.15;96533.59;5032629;28;20055;-79
2022/10/28 05:30:27;;;;;;;38.60;16.70;;;;;;;9.79;63.46;96412.16;5016015;28;20041;-79
2022/10/28 05:33:01;;;;;;;51.13;16.80;;;;;;;10.42;63.10;96541.84;5032971;28;20056;-78
2022/10/28 05:35:27;;;;;;;36.20;15.45;;;;;;;9.93;63.67;96457.69;5021787;28;20168;-79
2022/10/28 05:37:52;;;;;;;44.47;17.48;;;;;;;10.28;63.26;96500.78;5032834;28;20076;-78
2022/10/28 05:40:17;;;;;;;45.30;17.95;;;;;;;10.18;63.08;96470.63;5019489;28;20047;-78
2022/10/28 05:42:43;;;;;;;44.63;15.10;;;;;;;10.24;62.54;96489.03;5021101;28;20441;-78
2022/10/28 05:45:10;;;;;;;56.03;16.00;;;;;;;10.26;62.82;96488.78;5014616;28;20049;-78
2022/10/28 05:47:35;;;;;;;44.40;16.38;;;;;;;10.19;63.26;96481.00;5031651;28;20055;-78
2022/10/28 05:50:01;;;;;;;45.38;16.45;;;;;;;10.77;63.11;96568.16;5013907;28;20040;-78
2022/10/28 05:52:26;;;;;;;50.60;17.88;;;;;;;10.47;63.25;96527.88;5033644;28;20215;-78
2022/10/28 05:54:51;;;;;;;41.17;17.27;;;;;;;10.25;62.96;96480.03;5013667;28;20049;-80
2022/10/28 05:57:17;;;;;;;42.75;16.02;;;;;;;10.47;63.09;96525.22;5036250;28;20033;-78
2022/10/28 05:59:42;;;;;;;34.45;16.40;;;;;;;10.78;63.04;96568.97;5028240;28;20446;-79
2022/10/28 06:02:14;;;;;;;46.55;16.63;;;;;;;10.47;63.23;96517.25;5004864;28;20125;-77
2022/10/28 06:04:39;;;;;;;;;;;;;;;10.78;63.38;96574.28;5018949;28;20082;-80
2022/10/28 06:07:05;;;;;;;34.28;16.55;;;;;;;10.61;63.38;96576.09;5011460;28;20484;-79
2022/10/28 06:09:30;;;;;;;63.45;19.48;;;;;;;10.16;63.14;96493.88;5027829;28;20045;-84
2022/10/28 06:11:56;;;;;;;34.75;16.10;;;;;;;10.52;63.21;96565.09;5020014;28;20552;-80
2022/10/28 06:14:21;;;;;;;34.03;14.73;;;;;;;10.76;63.04;96585.13;4999030;28;20630;-79
2022/10/28 06:16:47;;;;;;;34.83;14.48;;;;;;;10.74;63.14;96584.59;5005474;28;20051;-78
2022/10/28 06:19:13;;;;;;;28.02;12.70;;;;;;;10.30;63.28;96517.22;5010083;28;20040;-78
2022/10/28 06:21:39;;;;;;;33.20;14.35;;;;;;;10.20;63.41;96518.91;5025891;28;20412;-78
2022/10/28 06:24:04;;;;;;;37.60;15.40;;;;;;;10.21;63.30;96523.19;5030190;28;20068;-78
2022/10/28 06:26:30;;;;;;;42.33;16.17;;;;;;;10.80;63.71;96604.03;5026485;28;20164;-78
2022/10/28 06:28:55;;;;;;;42.53;16.67;;;;;;;10.87;63.17;96602.03;5024491;28;20048;-78
2022/10/28 06:31:21;;;;;;;42.65;15.35;;;;;;;10.45;63.00;96517.50;5018051;28;20048;-78
2022/10/28 06:33:46;;;;;;;33.90;16.38;;;;;;;11.08;62.59;96603.16;5033348;28;20557;-79
2022/10/28 06:36:11;;;;;;;44.72;15.43;;;;;;;10.80;62.40;96554.44;5031073;28;20037;-77
2022/10/28 06:38:37;;;;;;;60.95;17.70;;;;;;;10.36;62.30;96489.78;5028544;28;20106;-78
2022/10/28 06:41:02;;;;;;;50.67;14.65;;;;;;;10.74;62.49;96523.56;5015223;28;20051;-78
2022/10/28 06:43:28;;;;;;;40.83;13.27;;;;;;;11.19;62.47;96603.09;5031982;28;20706;-79
2022/10/28 06:45:55;;;;;;;37.20;15.57;;;;;;;11.04;62.21;96571.00;5013822;28;20052;-79
2022/10/28 06:48:22;;;;;;;28.70;14.27;;;;;;;11.00;62.02;96561.09;5034704;28;20119;-80
2022/10/28 06:50:48;;;;;;;31.05;14.30;;;;;;;10.89;62.28;96541.56;5027704;28;20857;-81
2022/10/28 06:53:13;;;;;;;31.95;15.73;;;;;;;11.22;61.58;96572.56;5034158;28;20049;-77
2022/10/28 06:55:38;;;;;;;36.50;14.95;;;;;;;10.51;61.81;96464.53;5031855;28;20041;-78
2022/10/28 06:58:04;;;;;;;41.30;14.98;;;;;;;11.12;62.11;96546.69;5021413;28;20345;-75
2022/10/28 07:00:32;;;;;;;28.58;13.73;;;;;;;11.49;61.57;96588.66;5039107;28;20443;-78
2022/10/28 07:02:58;;;;;;;33.45;14.27;;;;;;;11.05;61.74;96521.38;5032231;28;20049;-77
2022/10/28 07:05:26;;;;;;;35.45;15.20;;;;;;;10.96;61.66;96512.19;5038350;28;20037;-79
2022/10/28 07:07:52;;;;;;;40.58;15.55;;;;;;;11.16;61.55;96529.22;5017578;28;20041;-76
2022/10/28 07:10:17;;;;;;;31.52;14.02;;;;;;;10.53;61.58;96427.97;5030381;28;20087;-77
2022/10/28 07:12:43;;;;;;;37.85;14.77;;;;;;;11.59;61.71;96597.53;5027732;28;20045;-80
2022/10/28 07:15:09;;;;;;;43.70;16.58;;;;;;;11.72;60.81;96593.75;5033309;28;20850;-77
2022/10/28 07:17:34;;;;;;;45.22;17.13;;;;;;;11.55;61.10;96569.06;5032221;28;20051;-77
2022/10/28 07:20:00;;;;;;;41.38;17.15;;;;;;;11.78;60.99;96602.63;5020966;28;20045;-79
2022/10/28 07:22:25;;;;;;;42.38;17.17;;;;;;;11.19;61.21;96501.38;5033775;28;20044;-76
2022/10/28 07:24:50;;;;;;;32.00;16.63;;;;;;;11.36;60.84;96515.44;5022663;28;20037;-76
2022/10/28 07:27:16;;;;;;;41.63;17.45;;;;;;;11.90;60.84;96598.00;5035648;28;20395;-77
2022/10/28 07:29:41;;;;;;;41.22;17.73;;;;;;;11.85;60.50;96592.59;5035753;28;20088;-77
2022/10/28 07:32:07;;;;;;;35.17;17.55;;;;;;;11.39;60.57;96504.31;5021481;28;20890;-77
2022/10/28 07:34:32;;;;;;;40.42;16.45;;;;;;;11.62;60.16;96532.50;5020087;28;20113;-77
2022/10/28 07:36:58;;;;;;;49.72;16.45;;;;;;;11.68;60.18;96533.34;5018573;28;20427;-78
2022/10/28 07:39:23;;;;;;;35.15;16.65;;;;;;;11.99;60.38;96599.16;5033017;28;20503;-76
2022/10/28 07:41:49;;;;;;;34.63;16.05;;;;;;;11.91;60.22;96571.16;5030298;28;20048;-78
2022/10/28 07:44:14;;;;;;;40.60;16.00;;;;;;;11.66;60.03;96523.00;5031184;28;20041;-78
2022/10/28 07:46:40;;;;;;;32.75;14.93;;;;;;;11.32;60.04;96479.78;5023588;28;20045;-76
2022/10/28 07:49:05;;;;;;;26.67;13.38;;;;;;;11.56;60.23;96526.31;5021459;28;20088;-77
2022/10/28 07:51:31;;;;;;;29.88;12.77;;;;;;;11.60;59.94;96502.69;5037681;28;20045;-79
2022/10/28 07:53:56;;;;;;;37.25;13.35;;;;;;;11.77;60.01;96539.88;5038440;28;20048;-81
2022/10/28 07:56:22;;;;;;;31.05;12.75;;;;;;;11.75;59.67;96524.16;5033116;28;20137;-77
2022/10/28 07:58:48;;;;;;;31.95;14.02;;;;;;;11.98;59.55;96539.06;5034394;28;20134;-78
2022/10/28 08:01:16;;;;;;;29.95;13.95;;;;;;;12.24;59.46;96583.50;5014415;28;20042;-79
2022/10/28 08:03:42;;;;;;;31.90;13.55;;;;;;;11.99;59.34;96536.16;5037056;28;20041;-80
2022/10/28 08:06:16;;;;;;;34.13;14.55;;;;;;;12.43;59.32;96583.97;5021003;28;20044;-84
2022/10/28 08:08:42;;;;;;;36.72;14.93;;;;;;;12.46;59.33;96580.81;5032959;28;20041;-79
2022/10/28 08:11:15;;;;;;;33.47;13.55;;;;;;;12.09;59.21;96518.72;5033880;28;20041;-77
2022/10/28 08:13:41;;;;;;;31.25;12.65;;;;;;;12.50;59.10;96584.59;5037721;28;20049;-79
2022/10/28 08:16:07;;;;;;;25.38;12.90;;;;;;;12.55;58.93;96589.16;5015604;28;20175;-78
2022/10/28 08:18:34;;;;;;;28.15;13.98;;;;;;;12.56;58.82;96582.78;5014671;28;20039;-78
2022/10/28 08:21:01;;;;;;;35.45;13.73;;;;;;;11.92;59.31;96518.78;5017712;28;20166;-77
2022/10/28 08:23:27;;;;;;;24.73;12.52;;;;;;;11.89;59.05;96503.34;5039576;28;20070;-77
2022/10/28 08:25:53;;;;;;;42.25;13.70;;;;;;;12.51;59.11;96594.16;5037695;28;20040;-78
2022/10/28 08:28:19;;;;;;;27.50;12.85;;;;;;;12.15;58.98;96523.03;5018352;28;20047;-77
2022/10/28 08:30:45;;;;;;;29.13;11.20;;;;;;;12.47;58.68;96555.81;5029838;28;20151;-78
2022/10/28 08:33:11;;;;;;;33.33;12.13;;;;;;;12.16;58.10;96493.53;5020358;28;20055;-78
2022/10/28 08:35:36;;;;;;;25.88;13.70;;;;;;;12.82;58.16;96583.78;5026744;28;20049;-79
2022/10/28 08:38:03;;;;;;;32.63;12.50;;;;;;;12.51;58.32;96543.59;5021999;28;20584;-79
2022/10/28 08:40:50;;;;;;;19.23;11.63;;;;;;;12.56;58.08;96532.22;5040150;28;20045;-81
2022/10/28 08:43:52;;;;;;;28.88;10.65;;;;;;;13.03;57.59;96581.06;5031626;28;20049;-78
2022/10/28 08:46:36;;;;;;;21.60;10.55;;;;;;;13.14;57.45;96580.09;5026940;28;20045;-83
2022/10/28 08:49:09;;;;;;;21.80;11.15;;;;;;;13.21;57.29;96579.06;5046531;28;20099;-80
2022/10/28 08:51:59;;;;;;;21.33;11.15;;;;;;;13.25;57.16;96573.00;5024651;28;20438;-76
2022/10/28 08:54:46;;;;;;;29.75;11.82;;;;;;;13.28;57.47;96564.47;5036135;28;20049;-76
2022/10/28 08:57:41;;;;;;;19.60;10.43;;;;;;;13.33;57.40;96566.38;5033186;28;20136;-78
2022/10/28 09:00:33;;;;;;;27.20;11.82;;;;;;;13.07;57.14;96520.91;5032711;28;20159;-85
2022/10/28 09:03:11;;;;;;;24.02;11.20;;;;;;;13.47;57.35;96564.88;5015264;28;20049;-79
2022/10/28 09:05:39;;;;;;;23.15;10.90;;;;;;;12.76;57.58;96471.16;5035747;28;20045;-77
2022/10/28 09:08:05;;;;;;;29.25;12.55;;;;;;;13.49;57.00;96563.56;5008368;28;20049;-76
2022/10/28 09:10:37;;;;;;;27.10;13.52;;;;;;;13.58;56.79;96558.53;5026591;28;20637;-77
2022/10/28 09:13:22;;;;;;;21.70;10.90;;;;;;;13.50;57.44;96533.16;5030170;28;20528;-82
2022/10/28 09:15:58;;;;;;;24.98;12.07;;;;;;;13.76;57.45;96543.97;5015497;28;20053;-78
2022/10/28 09:18:39;;;;;;;19.63;10.82;;;;;;;13.83;57.35;96550.66;5036984;28;20052;-77
2022/10/28 09:21:17;;;;;;;23.33;10.63;;;;;;;13.62;56.99;96503.66;5037534;28;20045;-77
2022/10/28 09:23:51;;;;;;;21.15;11.38;;;;;;;13.54;56.48;96474.81;5032165;28;20044;-79
2022/10/28 09:26:28;;;;;;;29.17;10.65;;;;;;;14.08;55.96;96543.81;5032966;28;20048;-78
2022/10/28 09:29:31;;;;;;;25.73;9.77;;;;;;;14.15;56.12;96537.16;5031375;28;20068;-78
2022/10/28 09:32:14;;;;;;;19.23;10.23;;;;;;;14.29;55.98;96534.81;5016597;28;20103;-79
2022/10/28 09:34:58;;;;;;;26.33;11.52;;;;;;;13.37;56.03;96391.59;5027434;28;20095;-80
2022/10/28 09:37:36;;;;;;;25.60;10.73;;;;;;;13.87;55.75;96458.41;5027210;28;20045;-79
2022/10/28 09:40:19;;;;;;;24.88;9.85;;;;;;;13.81;55.25;96442.66;5026413;28;20117;-78
2022/10/28 09:42:59;;;;;;;26.20;9.38;;;;;;;14.46;55.30;96522.06;5033568;28;20037;-77
2022/10/28 09:45:29;;;;;;;24.90;9.00;;;;;;;14.11;55.30;96453.38;5032412;28;20041;-79
2022/10/28 09:48:00;;;;;;;20.65;9.23;;;;;;;14.29;55.55;96471.56;5012429;28;20044;-77
2022/10/28 09:50:31;;;;;;;24.60;8.27;;;;;;;13.83;56.03;96349.88;5010963;28;20060;-83
2022/10/28 09:53:03;;;;;;;24.50;9.75;;;;;;;15.70;54.00;96506.44;5017294;28;20072;-78
2022/10/28 09:55:29;;;;;;;19.63;8.38;;;;;;;17.11;51.02;96495.91;5019608;28;20076;-78
2022/10/28 09:57:54;;;;;;;22.23;7.22;;;;;;;18.44;47.38;96494.06;5015541;28;20045;-81
2022/10/28 10:00:20;;;;;;;12.88;6.38;;;;;;;19.50;43.55;96451.97;5039531;28;20525;-79
2022/10/28 10:02:45;;;;;;;15.10;6.65;;;;;;;20.72;41.42;96443.94;5037091;28;20148;-78
2022/10/28 10:05:13;;;;;;;14.63;6.57;;;;;;;21.83;39.12;96435.56;5033803;28;20060;-78
2022/10/28 10:07:51;;;;;;;19.25;7.70;;;;;;;22.73;36.29;96462.03;5035893;28;20071;-78
2022/10/28 10:10:27;;;;;;;15.50;6.70;;;;;;;23.62;35.16;96448.47;5021664;28;20127;-80
2022/10/28 10:12:57;;;;;;;14.55;5.78;;;;;;;24.18;33.84;96435.56;5023401;28;20037;-82
2022/10/28 10:15:37;;;;;;;21.00;5.85;;;;;;;25.03;33.17;96473.97;5034810;28;20629;-86
2022/10/28 10:18:06;;;;;;;13.93;5.45;;;;;;;25.19;31.92;96431.47;5039994;28;20036;-83
2022/10/28 10:20:49;;;;;;;18.40;6.80;;;;;;;25.46;32.57;96465.38;5013021;28;20068;-82
2022/10/28 10:23:30;;;;;;;13.27;5.72;;;;;;;25.14;31.93;96422.78;4996674;28;20041;-80
2022/10/28 10:26:02;;;;;;;13.15;4.70;;;;;;;24.67;32.17;96357.16;5029940;28;20070;-79
2022/10/28 10:28:29;;;;;;;12.13;5.03;;;;;;;25.07;32.19;96455.91;5028520;28;20041;-79
2022/10/28 10:31:01;;;;;;;12.30;5.35;;;;;;;25.01;32.47;96453.72;5024988;28;20104;-80
2022/10/28 10:33:36;;;;;;;19.48;5.57;;;;;;;24.92;32.33;96445.66;5021516;28;20047;-78
2022/10/28 10:36:11;;;;;;;10.55;4.38;;;;;;;24.50;32.51;96405.00;5031007;28;20163;-77
2022/10/28 10:38:45;;;;;;;13.05;4.03;;;;;;;24.42;31.79;96403.16;5027474;28;20118;-77
2022/10/28 10:41:10;;;;;;;9.57;4.50;;;;;;;24.20;32.14;96408.94;5034744;28;20036;-78
2022/10/28 10:43:36;;;;;;;13.07;4.15;;;;;;;24.43;31.92;96431.88;5032383;28;20985;-77
2022/10/28 10:46:03;;;;;;;11.40;4.10;;;;;;;24.47;32.12;96435.53;5033052;28;20100;-76
2022/10/28 10:48:35;;;;;;;8.98;4.07;;;;;;;24.25;31.65;96438.56;5015403;28;20052;-77
2022/10/28 10:51:06;;;;;;;9.13;4.78;;;;;;;24.01;31.19;96439.19;5037169;28;21680;-79
2022/10/28 10:53:32;;;;;;;10.70;4.03;;;;;;;23.57;31.85;96380.19;5028558;28;20080;-77
2022/10/28 10:56:02;;;;;;;8.80;4.10;;;;;;;23.88;31.66;96415.03;5043640;28;20714;-76
2022/10/28 10:58:31;;;;;;;5.13;3.15;;;;;;;23.94;32.29;96432.69;5018484;28;20070;-77
2022/10/28 11:01:00;;;;;;;8.95;3.75;;;;;;;23.52;32.50;96426.38;5035808;28;20424;-77
2022/10/28 11:03:38;;;;;;;9.82;4.03;;;;;;;23.35;32.15;96386.59;5022333;28;20049;-78
2022/10/28 11:06:07;;;;;;;10.93;4.38;;;;;;;23.43;32.61;96408.22;5031927;28;20053;-77
2022/10/28 11:08:33;;;;;;;15.52;4.38;;;;;;;23.49;32.73;96418.91;5033414;28;20045;-78
2022/10/28 11:11:12;;;;;;;10.05;4.10;;;;;;;22.90;33.10;96392.50;5013860;28;20811;-78
2022/10/28 11:13:39;;;;;;;12.52;3.65;;;;;;;23.19;32.51;96416.13;5026063;28;20060;-79
2022/10/28 11:16:25;;;;;;;9.20;4.75;;;;;;;23.35;32.35;96409.06;5013287;28;20048;-83
2022/10/28 11:18:54;;;;;;;13.27;4.60;;;;;;;22.99;32.39;96344.59;5037800;28;20057;-83
2022/10/28 11:21:58;;;;;;;11.88;4.85;;;;;;;23.59;31.88;96394.16;5035113;28;20824;-78
2022/10/28 11:24:54;;;;;;;11.23;3.55;;;;;;;23.76;31.55;96400.28;5019449;28;20159;-78
2022/10/28 11:27:28;;;;;;;5.05;3.75;;;;;;;23.75;31.18;96400.59;5019930;28;20854;-78
2022/10/28 11:29:55;;;;;;;8.25;3.25;;;;;;;23.49;31.16;96343.13;5025843;28;20048;-78
2022/10/28 11:32:39;;;;;;;8.00;2.75;;;;;;;24.03;30.60;96387.38;5038287;28;20427;-77
2022/10/28 11:35:26;;;;;;;10.65;3.95;;;;;;;24.08;30.94;96389.88;5014907;28;20041;-77
2022/10/28 11:38:02;;;;;;;9.27;3.38;;;;;;;24.05;30.34;96360.72;5028566;28;20059;-78